createdAt,value
2022-09-22T00:00:57.144Z,47.63
2022-09-22T00:06:06.798Z,51.05
2022-09-22T00:11:17.197Z,49.03
2022-09-22T00:16:14.322Z,51.70
2022-09-22T00:21:15.150Z,55.55
2022-09-22T00:26:12.576Z,53.30
2022-09-22T00:31:10.181Z,53.75
2022-09-22T00:36:07.010Z,51.65
2022-09-22T00:41:04.296Z,51.47
2022-09-22T00:46:21.556Z,53.38
2022-09-22T00:51:20.376Z,51.15
2022-09-22T00:56:25.060Z,51.28
2022-09-22T01:01:21.462Z,51.13
2022-09-22T01:06:19.054Z,51.00
2022-09-22T01:11:17.340Z,55.08
2022-09-22T01:16:38.991Z,54.78
2022-09-22T01:21:40.367Z,54.85
2022-09-22T01:26:55.957Z,55.67
2022-09-22T01:32:10.762Z,54.80
2022-09-22T01:37:09.783Z,55.03
2022-09-22T01:42:11.394Z,52.58
2022-09-22T01:47:10.519Z,54.65
2022-09-22T01:52:11.564Z,52.65
2022-09-22T01:57:19.627Z,56.47
2022-09-22T02:02:22.470Z,53.28
2022-09-22T02:07:30.954Z,53.83
2022-09-22T02:12:27.294Z,50.95
2022-09-22T02:17:23.707Z,55.20
2022-09-22T02:22:20.767Z,54.05
2022-09-22T02:27:25.375Z,54.63
2022-09-22T02:32:22.246Z,53.10
2022-09-22T02:37:21.472Z,55.03
2022-09-22T02:42:26.900Z,56.10
2022-09-22T02:47:28.926Z,58.33
2022-09-22T02:52:25.311Z,56.17
2022-09-22T02:57:21.587Z,59.13
2022-09-22T03:02:17.931Z,60.40
2022-09-22T03:07:14.274Z,60.75
2022-09-22T03:12:10.579Z,58.75
2022-09-22T03:17:06.776Z,62.70
2022-09-22T03:22:02.987Z,63.35
2022-09-22T03:26:59.206Z,62.40
2022-09-22T03:31:55.408Z,61.72
2022-09-22T03:36:51.846Z,60.83
2022-09-22T03:41:48.068Z,64.93
2022-09-22T03:46:44.926Z,59.65
2022-09-22T03:51:41.137Z,63.50
2022-09-22T03:56:38.261Z,58.92
2022-09-22T04:01:34.489Z,61.08
2022-09-22T04:06:31.094Z,61.72
2022-09-22T04:11:27.304Z,59.67
2022-09-22T04:16:23.577Z,63.25
2022-09-22T04:21:19.768Z,60.92
2022-09-22T04:26:16.131Z,61.63
2022-09-22T04:31:12.490Z,64.85
2022-09-22T04:36:08.939Z,61.83
2022-09-22T04:41:05.797Z,65.43
2022-09-22T04:46:02.242Z,62.40
2022-09-22T04:50:58.461Z,66.90
2022-09-22T04:55:56.440Z,63.15
2022-09-22T05:00:54.724Z,65.65
2022-09-22T05:05:50.973Z,66.32
2022-09-22T05:10:47.254Z,67.22
2022-09-22T05:15:43.556Z,64.10
2022-09-22T05:20:39.806Z,65.50
2022-09-22T05:25:35.992Z,64.90
2022-09-22T05:30:32.226Z,66.13
2022-09-22T05:35:30.821Z,65.25
2022-09-22T05:40:31.001Z,62.15
2022-09-22T05:45:27.286Z,66.05
2022-09-22T05:50:23.907Z,66.38
2022-09-22T05:55:20.245Z,69.47
2022-09-22T06:00:16.503Z,67.68
2022-09-22T06:05:16.109Z,67.65
2022-09-22T06:10:13.821Z,68.03
2022-09-22T06:15:10.144Z,68.68
2022-09-22T06:20:08.159Z,77.10
2022-09-22T06:25:04.619Z,76.90
2022-09-22T06:30:00.825Z,76.75
2022-09-22T06:34:59.735Z,81.65
2022-09-22T06:39:56.004Z,83.75
2022-09-22T06:44:53.366Z,87.50
2022-09-22T06:49:49.619Z,86.43
2022-09-22T06:54:45.922Z,92.18
2022-09-22T06:59:42.263Z,93.85
2022-09-22T07:04:38.500Z,93.63
2022-09-22T07:09:34.692Z,101.82
2022-09-22T07:14:31.141Z,104.00
2022-09-22T07:19:27.443Z,102.93
2022-09-22T07:24:23.683Z,110.10
2022-09-22T07:29:19.958Z,107.28
2022-09-22T07:34:18.081Z,114.10
2022-09-22T07:39:14.313Z,111.65
2022-09-22T07:44:29.995Z,113.75
2022-09-22T07:49:26.298Z,109.97
2022-09-22T07:54:23.081Z,113.10
2022-09-22T07:59:19.524Z,107.55
2022-09-22T08:04:26.283Z,101.35
2022-09-22T08:09:23.210Z,94.53
2022-09-22T08:14:23.413Z,88.40
2022-09-22T08:19:21.747Z,66.18
2022-09-22T08:24:21.398Z,58.70
2022-09-22T08:29:17.743Z,49.63
2022-09-22T08:34:16.189Z,35.67
2022-09-22T08:39:12.872Z,27.67
2022-09-22T08:44:10.576Z,24.67
2022-09-22T08:49:30.723Z,22.23
2022-09-22T08:54:35.242Z,20.88
2022-09-22T08:59:51.968Z,18.30
2022-09-22T09:05:06.877Z,14.90
2022-09-22T09:10:03.140Z,16.30
2022-09-22T09:15:25.960Z,15.23
2022-09-22T09:20:39.926Z,14.07
2022-09-22T09:25:40.399Z,13.55
2022-09-22T09:30:43.022Z,11.90
2022-09-22T09:40:38.420Z,10.68
2022-09-22T09:45:44.555Z,8.82
2022-09-22T09:50:40.869Z,8.48
2022-09-22T09:55:37.162Z,7.95
2022-09-22T10:00:34.973Z,7.72
2022-09-22T10:05:32.404Z,8.68
2022-09-22T10:10:28.648Z,8.30
2022-09-22T10:15:25.816Z,7.75
2022-09-22T10:20:23.535Z,7.15
2022-09-22T10:25:27.277Z,6.95
2022-09-22T10:30:23.954Z,7.18
2022-09-22T10:35:28.872Z,7.43
2022-09-22T10:40:26.062Z,7.63
2022-09-22T10:45:28.701Z,6.90
2022-09-22T10:50:55.209Z,7.10
2022-09-22T10:55:57.206Z,6.35
2022-09-22T11:01:13.775Z,6.03
2022-09-22T11:06:46.575Z,5.90
2022-09-22T11:12:01.520Z,6.47
2022-09-22T11:17:16.667Z,6.70
2022-09-22T11:22:12.960Z,6.25
2022-09-22T11:27:13.870Z,5.95
2022-09-22T11:32:19.448Z,6.38
2022-09-22T11:37:28.017Z,6.35
2022-09-22T11:42:29.359Z,5.85
2022-09-22T11:47:28.575Z,6.45
2022-09-22T11:52:24.771Z,6.40
2022-09-22T11:57:23.703Z,7.50
2022-09-22T12:02:27.096Z,6.70
2022-09-22T12:07:32.967Z,6.88
2022-09-22T12:12:31.309Z,6.20
2022-09-22T12:17:40.365Z,6.75
2022-09-22T12:22:56.993Z,6.30
2022-09-22T12:27:55.655Z,6.20
2022-09-22T12:32:52.026Z,6.57
2022-09-22T12:37:53.221Z,8.10
2022-09-22T12:42:51.055Z,6.35
2022-09-22T12:47:52.536Z,6.10
2022-09-22T12:52:50.386Z,6.70
2022-09-22T12:57:47.356Z,6.40
2022-09-22T13:02:45.967Z,6.60
2022-09-22T13:07:42.947Z,6.15
2022-09-22T13:12:39.277Z,7.00
2022-09-22T13:17:40.971Z,6.57
2022-09-22T13:22:37.510Z,6.18
2022-09-22T13:27:33.762Z,6.70
2022-09-22T13:32:30.075Z,6.43
2022-09-22T13:37:26.578Z,5.60
2022-09-22T13:42:22.854Z,6.43
2022-09-22T13:47:23.908Z,6.38
2022-09-22T13:52:30.454Z,5.95
2022-09-22T13:57:28.671Z,6.03
2022-09-22T14:02:31.302Z,6.30
2022-09-22T14:07:30.587Z,6.18
2022-09-22T14:12:29.995Z,7.38
2022-09-22T14:17:28.554Z,6.90
2022-09-22T14:22:26.378Z,6.85
2022-09-22T14:27:32.437Z,7.28
2022-09-22T14:32:37.226Z,6.65
2022-09-22T14:37:39.059Z,6.88
2022-09-22T14:42:35.976Z,6.32
2022-09-22T14:47:39.191Z,6.78
2022-09-22T14:52:37.063Z,7.07
2022-09-22T14:57:34.386Z,6.00
2022-09-22T15:02:33.758Z,6.00
2022-09-22T15:07:31.211Z,6.00
2022-09-22T15:12:47.458Z,6.20
2022-09-22T15:18:07.630Z,6.60
2022-09-22T15:23:04.580Z,6.35
2022-09-22T15:28:01.714Z,5.50
2022-09-22T15:32:58.114Z,5.97
2022-09-22T15:37:55.390Z,6.53
2022-09-22T15:43:11.832Z,6.95
2022-09-22T15:48:08.651Z,6.00
2022-09-22T15:53:04.908Z,7.43
2022-09-22T15:58:07.252Z,7.15
2022-09-22T16:03:05.635Z,6.60
2022-09-22T16:08:02.166Z,7.28
2022-09-22T16:12:59.173Z,6.90
2022-09-22T16:17:55.468Z,7.05
2022-09-22T16:22:51.681Z,7.50
2022-09-22T16:27:47.956Z,7.40
2022-09-22T16:32:44.206Z,6.95
2022-09-22T16:37:40.432Z,6.75
2022-09-22T16:42:39.035Z,6.97
2022-09-22T16:47:35.263Z,6.97
2022-09-22T16:52:32.154Z,7.25
2022-09-22T16:57:28.392Z,7.00
2022-09-22T17:02:26.175Z,7.00
2022-09-22T17:07:24.139Z,7.07
2022-09-22T17:12:26.040Z,7.30
2022-09-22T17:17:22.503Z,6.87
2022-09-22T17:22:20.268Z,7.10
2022-09-22T17:27:17.333Z,7.05
2022-09-22T17:32:14.623Z,6.95
2022-09-22T17:37:13.975Z,7.20
2022-09-22T17:42:10.924Z,7.30
2022-09-22T17:47:25.709Z,7.22
2022-09-22T17:52:40.725Z,7.47
2022-09-22T17:57:41.208Z,7.28
2022-09-22T18:02:38.678Z,7.50
2022-09-22T18:07:36.595Z,7.72
2022-09-22T18:12:34.110Z,8.18
2022-09-22T18:17:31.945Z,8.80
2022-09-22T18:22:29.349Z,8.98
2022-09-22T18:27:27.035Z,9.65
2022-09-22T18:32:23.415Z,8.90
2022-09-22T18:37:20.475Z,9.20
2022-09-22T18:42:17.782Z,9.52
2022-09-22T18:47:16.167Z,10.50
2022-09-22T18:52:12.407Z,10.18
2022-09-22T18:57:13.167Z,10.30
2022-09-22T19:02:11.813Z,9.93
2022-09-22T19:07:26.718Z,10.70
2022-09-22T19:12:22.938Z,10.93
2022-09-22T19:17:19.751Z,10.73
2022-09-22T19:22:16.542Z,11.27
2022-09-22T19:27:14.742Z,10.98
2022-09-22T19:32:11.023Z,11.70
2022-09-22T19:37:07.568Z,12.68
2022-09-22T19:42:03.826Z,12.70
2022-09-22T19:47:00.154Z,12.93
2022-09-22T19:51:56.422Z,13.27
2022-09-22T19:56:52.671Z,13.43
2022-09-22T20:01:48.933Z,14.05
2022-09-22T20:06:46.260Z,13.20
2022-09-22T20:11:43.566Z,13.07
2022-09-22T20:16:41.658Z,13.63
2022-09-22T20:21:42.322Z,14.70
2022-09-22T20:26:38.693Z,13.70
2022-09-22T20:31:36.128Z,14.65
2022-09-22T20:36:36.620Z,15.32
2022-09-22T20:41:33.451Z,15.20
2022-09-22T20:46:29.740Z,16.90
2022-09-22T20:51:26.323Z,16.85
2022-09-22T20:56:23.535Z,17.60
2022-09-22T21:01:19.882Z,17.23
2022-09-22T21:06:17.815Z,18.45
2022-09-22T21:11:15.155Z,19.15
2022-09-22T21:16:13.752Z,18.75
2022-09-22T21:21:10.132Z,17.77
2022-09-22T21:26:07.839Z,19.30
2022-09-22T21:31:05.615Z,19.80
2022-09-22T21:36:05.151Z,20.17
2022-09-22T21:41:02.325Z,19.48
2022-09-22T21:46:04.374Z,19.27
2022-09-22T21:51:03.452Z,21.05
2022-09-22T21:56:04.313Z,20.80
2022-09-22T22:01:04.927Z,20.17
2022-09-22T22:06:12.517Z,21.52
2022-09-22T22:11:13.005Z,21.30
2022-09-22T22:16:11.287Z,20.92
2022-09-22T22:21:09.524Z,21.00
2022-09-22T22:26:13.289Z,20.73
2022-09-22T22:31:11.235Z,22.10
2022-09-22T22:36:08.585Z,21.55
2022-09-22T22:41:06.678Z,20.10
2022-09-22T22:46:03.501Z,21.33
2022-09-22T22:51:00.532Z,19.80
2022-09-22T22:56:00.235Z,19.70
2022-09-22T23:01:01.109Z,21.55
2022-09-22T23:05:58.509Z,21.35
2022-09-22T23:11:05.246Z,19.77
2022-09-22T23:16:02.623Z,19.73
2022-09-22T23:20:58.882Z,19.77
2022-09-22T23:25:55.163Z,19.08
2022-09-22T23:31:04.447Z,18.15
2022-09-22T23:36:01.346Z,17.58
2022-09-22T23:40:58.374Z,19.33
2022-09-22T23:45:55.014Z,19.00
2022-09-22T23:50:53.198Z,18.02
2022-09-22T23:55:49.867Z,19.48
